AFR24SY EGKK-LFPG
Flight info
| Callsign | AFR24SY |
|---|---|
| Flight time | N/A |
| Altitude | 23000 |
| Route | BOGNA DCT HARDY M605 XIDIL UM605 BIBAX |
| Aircraft | A20N/M-SDE2E3FGHIRWXY/LB1 |
Departure
| Time | 2026-04-19 09:49 |
|---|---|
| Airport | London Gatwick Airport (EGKK) |
Arrival
| Time | N/A |
|---|---|
| Airport | Charles de Gaulle International Airport (LFPG) |
| Time | Latitude | Longitude | Altitude | Speed | Heading |
|---|---|---|---|---|---|
| 2026-04-19 09:24 | 51.15856 | -0.17425 | 208 ft | 0 kts | 349° |
| 2026-04-19 09:38 | 51.15853 | -0.17424 | 208 ft | 1 kts | 349° |
| 2026-04-19 09:38 | 51.15836 | -0.17419 | 211 ft | 3 kts | 346° |
| 2026-04-19 09:39 | 51.15817 | -0.17410 | 208 ft | 3 kts | 341° |
| 2026-04-19 09:39 | 51.15798 | -0.17398 | 216 ft | 3 kts | 327° |
| 2026-04-19 09:39 | 51.15785 | -0.17380 | 212 ft | 3 kts | 288° |
| 2026-04-19 09:39 | 51.15783 | -0.17365 | 210 ft | 0 kts | 257° |
| 2026-04-19 09:43 | 51.15774 | -0.17428 | 211 ft | 7 kts | 257° |
| 2026-04-19 09:43 | 51.15754 | -0.17493 | 215 ft | 6 kts | 217° |
| 2026-04-19 09:43 | 51.15701 | -0.17491 | 215 ft | 12 kts | 168° |
| 2026-04-19 09:44 | 51.15618 | -0.17464 | 208 ft | 12 kts | 168° |
| 2026-04-19 09:44 | 51.15539 | -0.17435 | 208 ft | 11 kts | 166° |
| 2026-04-19 09:44 | 51.15464 | -0.17408 | 208 ft | 11 kts | 168° |
| 2026-04-19 09:44 | 51.15391 | -0.17383 | 213 ft | 11 kts | 168° |
| 2026-04-19 09:45 | 51.15317 | -0.17358 | 217 ft | 11 kts | 168° |
| 2026-04-19 09:45 | 51.15251 | -0.17321 | 212 ft | 9 kts | 151° |
| 2026-04-19 09:45 | 51.15235 | -0.17306 | 210 ft | 0 kts | 146° |
| 2026-04-19 09:46 | 51.15225 | -0.17293 | 213 ft | 9 kts | 143° |
| 2026-04-19 09:46 | 51.15184 | -0.17211 | 208 ft | 10 kts | 96° |
| 2026-04-19 09:46 | 51.15195 | -0.17100 | 205 ft | 10 kts | 77° |
| 2026-04-19 09:46 | 51.15211 | -0.16985 | 204 ft | 11 kts | 77° |
| 2026-04-19 09:47 | 51.15223 | -0.16871 | 204 ft | 9 kts | 91° |
| 2026-04-19 09:47 | 51.15223 | -0.16860 | 204 ft | 0 kts | 98° |
| 2026-04-19 09:47 | 51.15216 | -0.16830 | 207 ft | 8 kts | 116° |
| 2026-04-19 09:47 | 51.15167 | -0.16786 | 209 ft | 9 kts | 178° |
| 2026-04-19 09:48 | 51.15112 | -0.16845 | 202 ft | 10 kts | 246° |
| 2026-04-19 09:48 | 51.15097 | -0.16943 | 206 ft | 10 kts | 258° |
| 2026-04-19 09:48 | 51.15034 | -0.17419 | 209 ft | 78 kts | 258° |
| 2026-04-19 09:48 | 51.14867 | -0.18615 | 209 ft | 142 kts | 258° |
| 2026-04-19 09:49 | 51.14624 | -0.20233 | 644 ft | 153 kts | 259° |
| 2026-04-19 09:49 | 51.14377 | -0.21917 | 1205 ft | 164 kts | 262° |
| 2026-04-19 09:49 | 51.14142 | -0.23780 | 1714 ft | 180 kts | 264° |
| 2026-04-19 09:49 | 51.13947 | -0.25861 | 2138 ft | 199 kts | 266° |
| 2026-04-19 09:50 | 51.13698 | -0.28125 | 2637 ft | 216 kts | 260° |
| 2026-04-19 09:50 | 51.13330 | -0.30494 | 3566 ft | 222 kts | 259° |
| 2026-04-19 09:50 | 51.12951 | -0.32892 | 4532 ft | 224 kts | 259° |
| 2026-04-19 09:50 | 51.12591 | -0.35289 | 5576 ft | 221 kts | 260° |
| 2026-04-19 09:51 | 51.12228 | -0.37716 | 6408 ft | 230 kts | 257° |
| 2026-04-19 09:51 | 51.11547 | -0.40029 | 6973 ft | 236 kts | 235° |
| 2026-04-19 09:51 | 51.10251 | -0.41645 | 7212 ft | 244 kts | 204° |
| 2026-04-19 09:51 | 51.08568 | -0.42053 | 7221 ft | 249 kts | 181° |
| 2026-04-19 09:52 | 51.06827 | -0.41859 | 7463 ft | 251 kts | 176° |
| 2026-04-19 09:52 | 51.05113 | -0.41587 | 8330 ft | 251 kts | 176° |
| 2026-04-19 09:52 | 51.03375 | -0.41321 | 9296 ft | 251 kts | 177° |
| 2026-04-19 09:52 | 51.01624 | -0.41071 | 10204 ft | 255 kts | 177° |
| 2026-04-19 09:53 | 50.99844 | -0.40832 | 11028 ft | 258 kts | 177° |
| 2026-04-19 09:53 | 50.98043 | -0.40595 | 11870 ft | 261 kts | 178° |
| 2026-04-19 09:53 | 50.96222 | -0.40360 | 12696 ft | 265 kts | 178° |
| 2026-04-19 09:53 | 50.94330 | -0.40121 | 13273 ft | 282 kts | 178° |
| 2026-04-19 09:54 | 50.92284 | -0.39866 | 13444 ft | 307 kts | 178° |
| 2026-04-19 09:54 | 50.90116 | -0.39592 | 13519 ft | 315 kts | 178° |
| 2026-04-19 09:54 | 50.87931 | -0.39311 | 14224 ft | 312 kts | 178° |
| 2026-04-19 09:54 | 50.85746 | -0.39031 | 15029 ft | 318 kts | 178° |
| 2026-04-19 09:55 | 50.83539 | -0.38466 | 15499 ft | 325 kts | 165° |
| 2026-04-19 09:55 | 50.81480 | -0.36935 | 15632 ft | 330 kts | 151° |
| 2026-04-19 09:55 | 50.80844 | -0.36317 | 15649 ft | 331 kts | 149° |
| 2026-04-19 09:55 | 50.77676 | -0.32994 | 16486 ft | 324 kts | 148° |
| 2026-04-19 09:56 | 50.75822 | -0.31033 | 17616 ft | 315 kts | 149° |
| 2026-04-19 09:56 | 50.73999 | -0.29120 | 18543 ft | 315 kts | 149° |
| 2026-04-19 09:56 | 50.72136 | -0.27168 | 19003 ft | 329 kts | 147° |
| 2026-04-19 09:56 | 50.70350 | -0.24721 | 19143 ft | 352 kts | 131° |
| 2026-04-19 09:57 | 50.68896 | -0.21452 | 19159 ft | 378 kts | 121° |
| 2026-04-19 09:57 | 50.67592 | -0.17691 | 19158 ft | 404 kts | 116° |
| 2026-04-19 09:57 | 50.66347 | -0.13576 | 19149 ft | 423 kts | 114° |
| 2026-04-19 09:57 | 50.65128 | -0.09339 | 19140 ft | 426 kts | 114° |
| 2026-04-19 09:58 | 50.63900 | -0.05071 | 19134 ft | 427 kts | 114° |
| 2026-04-19 09:58 | 50.62654 | -0.00823 | 19148 ft | 428 kts | 115° |
| 2026-04-19 09:58 | 50.61399 | 0.03357 | 19136 ft | 428 kts | 115° |
| 2026-04-19 09:58 | 50.60530 | 0.06210 | 19132 ft | 428 kts | 115° |
| 2026-04-19 09:59 | 50.58788 | 0.11854 | 19140 ft | 429 kts | 116° |
| 2026-04-19 09:59 | 50.57476 | 0.16066 | 19593 ft | 428 kts | 116° |
| 2026-04-19 09:59 | 50.56612 | 0.18832 | 20261 ft | 423 kts | 116° |
| 2026-04-19 09:59 | 50.54895 | 0.24315 | 21727 ft | 412 kts | 116° |
| 2026-04-19 10:00 | 50.53650 | 0.28287 | 22649 ft | 409 kts | 116° |
| 2026-04-19 10:00 | 50.52383 | 0.32330 | 23189 ft | 416 kts | 116° |
| 2026-04-19 10:00 | 50.51077 | 0.36488 | 23341 ft | 433 kts | 116° |
| 2026-04-19 10:00 | 50.49715 | 0.40822 | 23340 ft | 451 kts | 116° |
| 2026-04-19 10:01 | 50.48263 | 0.45257 | 23330 ft | 459 kts | 121° |